sensor_id;sensor_type;location;lat;lon;timestamp;P1;durP1;ratioP1;P2;durP2;ratioP2
6947;SDS011;3513;47.664;9.162;2022-08-21T00:00:53;8.07;;;3.50;;
6947;SDS011;3513;47.664;9.162;2022-08-21T00:03:19;4.30;;;3.47;;
6947;SDS011;3513;47.664;9.162;2022-08-21T00:05:46;5.53;;;3.50;;
6947;SDS011;3513;47.664;9.162;2022-08-21T00:08:15;4.43;;;3.20;;
6947;SDS011;3513;47.664;9.162;2022-08-21T00:10:42;4.20;;;3.73;;
6947;SDS011;3513;47.664;9.162;2022-08-21T00:13:09;3.20;;;2.90;;
6947;SDS011;3513;47.664;9.162;2022-08-21T00:15:36;3.67;;;3.00;;
6947;SDS011;3513;47.664;9.162;2022-08-21T00:18:03;3.03;;;2.83;;
6947;SDS011;3513;47.664;9.162;2022-08-21T00:20:31;3.07;;;2.77;;
6947;SDS011;3513;47.664;9.162;2022-08-21T00:22:58;7.00;;;3.10;;
6947;SDS011;3513;47.664;9.162;2022-08-21T00:25:23;3.50;;;3.13;;
6947;SDS011;3513;47.664;9.162;2022-08-21T00:27:49;2.77;;;2.57;;
6947;SDS011;3513;47.664;9.162;2022-08-21T00:30:16;6.10;;;3.07;;
6947;SDS011;3513;47.664;9.162;2022-08-21T00:32:42;8.30;;;3.80;;
6947;SDS011;3513;47.664;9.162;2022-08-21T00:35:10;5.30;;;3.73;;
6947;SDS011;3513;47.664;9.162;2022-08-21T00:37:38;5.83;;;3.10;;
6947;SDS011;3513;47.664;9.162;2022-08-21T00:40:05;5.73;;;3.33;;
6947;SDS011;3513;47.664;9.162;2022-08-21T00:42:33;3.73;;;2.97;;
6947;SDS011;3513;47.664;9.162;2022-08-21T00:44:59;6.43;;;3.70;;
6947;SDS011;3513;47.664;9.162;2022-08-21T00:47:25;6.03;;;3.10;;
6947;SDS011;3513;47.664;9.162;2022-08-21T00:49:50;6.13;;;3.87;;
6947;SDS011;3513;47.664;9.162;2022-08-21T00:52:21;3.00;;;2.67;;
6947;SDS011;3513;47.664;9.162;2022-08-21T00:54:49;3.90;;;3.50;;
6947;SDS011;3513;47.664;9.162;2022-08-21T00:57:22;3.40;;;3.10;;
6947;SDS011;3513;47.664;9.162;2022-08-21T00:59:53;3.20;;;2.90;;
6947;SDS011;3513;47.664;9.162;2022-08-21T01:02:23;3.40;;;3.10;;
6947;SDS011;3513;47.664;9.162;2022-08-21T01:04:49;5.93;;;3.57;;
6947;SDS011;3513;47.664;9.162;2022-08-21T01:07:15;9.00;;;3.90;;
6947;SDS011;3513;47.664;9.162;2022-08-21T01:09:41;5.33;;;3.53;;
6947;SDS011;3513;47.664;9.162;2022-08-21T01:12:08;5.83;;;3.90;;
6947;SDS011;3513;47.664;9.162;2022-08-21T01:14:35;7.47;;;5.33;;
6947;SDS011;3513;47.664;9.162;2022-08-21T01:17:02;14.80;;;5.10;;
6947;SDS011;3513;47.664;9.162;2022-08-21T01:19:29;11.80;;;4.50;;
6947;SDS011;3513;47.664;9.162;2022-08-21T01:21:55;4.57;;;4.17;;
6947;SDS011;3513;47.664;9.162;2022-08-21T01:24:21;8.87;;;5.50;;
6947;SDS011;3513;47.664;9.162;2022-08-21T01:26:47;5.80;;;5.30;;
6947;SDS011;3513;47.664;9.162;2022-08-21T01:29:28;9.80;;;5.63;;
6947;SDS011;3513;47.664;9.162;2022-08-21T01:32:17;7.33;;;4.53;;
6947;SDS011;3513;47.664;9.162;2022-08-21T01:34:45;9.53;;;5.30;;
6947;SDS011;3513;47.664;9.162;2022-08-21T01:37:12;11.40;;;5.57;;
6947;SDS011;3513;47.664;9.162;2022-08-21T01:39:39;7.13;;;5.07;;
6947;SDS011;3513;47.664;9.162;2022-08-21T01:42:05;8.73;;;6.97;;
6947;SDS011;3513;47.664;9.162;2022-08-21T01:44:31;12.20;;;6.97;;
6947;SDS011;3513;47.664;9.162;2022-08-21T01:46:58;11.63;;;7.50;;
6947;SDS011;3513;47.664;9.162;2022-08-21T01:49:25;13.53;;;8.60;;
6947;SDS011;3513;47.664;9.162;2022-08-21T01:51:51;15.70;;;8.53;;
6947;SDS011;3513;47.664;9.162;2022-08-21T01:54:17;8.50;;;6.80;;
6947;SDS011;3513;47.664;9.162;2022-08-21T01:56:45;6.43;;;5.20;;
6947;SDS011;3513;47.664;9.162;2022-08-21T01:59:12;8.00;;;4.90;;
6947;SDS011;3513;47.664;9.162;2022-08-21T02:01:38;5.50;;;4.23;;
6947;SDS011;3513;47.664;9.162;2022-08-21T02:04:07;9.03;;;4.37;;
6947;SDS011;3513;47.664;9.162;2022-08-21T02:06:34;6.80;;;4.17;;
6947;SDS011;3513;47.664;9.162;2022-08-21T02:09:00;6.00;;;4.63;;
6947;SDS011;3513;47.664;9.162;2022-08-21T02:11:28;5.80;;;4.30;;
6947;SDS011;3513;47.664;9.162;2022-08-21T02:13:53;8.33;;;5.70;;
6947;SDS011;3513;47.664;9.162;2022-08-21T02:16:19;11.13;;;5.53;;
6947;SDS011;3513;47.664;9.162;2022-08-21T02:18:45;11.73;;;5.80;;
6947;SDS011;3513;47.664;9.162;2022-08-21T02:21:10;10.70;;;6.40;;
6947;SDS011;3513;47.664;9.162;2022-08-21T02:23:36;12.03;;;7.03;;
6947;SDS011;3513;47.664;9.162;2022-08-21T02:26:04;20.87;;;7.13;;
6947;SDS011;3513;47.664;9.162;2022-08-21T02:28:32;35.67;;;8.33;;
6947;SDS011;3513;47.664;9.162;2022-08-21T02:30:58;13.17;;;7.23;;
6947;SDS011;3513;47.664;9.162;2022-08-21T02:33:24;13.50;;;8.90;;
6947;SDS011;3513;47.664;9.162;2022-08-21T02:35:51;16.17;;;8.73;;
6947;SDS011;3513;47.664;9.162;2022-08-21T02:38:22;21.00;;;10.87;;
6947;SDS011;3513;47.664;9.162;2022-08-21T02:40:51;19.77;;;11.43;;
6947;SDS011;3513;47.664;9.162;2022-08-21T02:43:19;17.97;;;12.17;;
6947;SDS011;3513;47.664;9.162;2022-08-21T02:45:45;24.63;;;13.50;;
6947;SDS011;3513;47.664;9.162;2022-08-21T02:48:14;20.60;;;13.40;;
6947;SDS011;3513;47.664;9.162;2022-08-21T02:50:52;40.73;;;14.23;;
6947;SDS011;3513;47.664;9.162;2022-08-21T02:53:26;32.50;;;14.30;;
6947;SDS011;3513;47.664;9.162;2022-08-21T02:55:52;16.63;;;12.23;;
6947;SDS011;3513;47.664;9.162;2022-08-21T02:58:20;19.13;;;13.93;;
6947;SDS011;3513;47.664;9.162;2022-08-21T03:00:48;19.10;;;12.10;;
6947;SDS011;3513;47.664;9.162;2022-08-21T03:03:14;16.20;;;12.17;;
6947;SDS011;3513;47.664;9.162;2022-08-21T03:05:40;27.10;;;14.97;;
6947;SDS011;3513;47.664;9.162;2022-08-21T03:08:07;39.63;;;15.20;;
6947;SDS011;3513;47.664;9.162;2022-08-21T03:10:35;28.20;;;13.27;;
6947;SDS011;3513;47.664;9.162;2022-08-21T03:13:02;20.47;;;14.10;;
6947;SDS011;3513;47.664;9.162;2022-08-21T03:15:28;28.40;;;14.43;;
6947;SDS011;3513;47.664;9.162;2022-08-21T03:17:55;78.93;;;17.00;;
6947;SDS011;3513;47.664;9.162;2022-08-21T03:20:22;18.57;;;11.70;;
6947;SDS011;3513;47.664;9.162;2022-08-21T03:22:49;24.50;;;14.13;;
6947;SDS011;3513;47.664;9.162;2022-08-21T03:25:16;25.60;;;15.00;;
6947;SDS011;3513;47.664;9.162;2022-08-21T03:27:42;22.07;;;13.77;;
6947;SDS011;3513;47.664;9.162;2022-08-21T03:30:08;19.97;;;13.00;;
6947;SDS011;3513;47.664;9.162;2022-08-21T03:32:35;40.90;;;15.97;;
6947;SDS011;3513;47.664;9.162;2022-08-21T03:35:02;27.43;;;14.87;;
6947;SDS011;3513;47.664;9.162;2022-08-21T03:37:28;20.20;;;14.57;;
6947;SDS011;3513;47.664;9.162;2022-08-21T03:39:54;26.93;;;14.47;;
6947;SDS011;3513;47.664;9.162;2022-08-21T03:42:21;15.83;;;12.00;;
6947;SDS011;3513;47.664;9.162;2022-08-21T03:44:46;19.27;;;13.43;;
6947;SDS011;3513;47.664;9.162;2022-08-21T03:47:12;23.53;;;12.60;;
6947;SDS011;3513;47.664;9.162;2022-08-21T03:49:38;15.77;;;12.70;;
6947;SDS011;3513;47.664;9.162;2022-08-21T03:52:04;15.10;;;12.70;;
6947;SDS011;3513;47.664;9.162;2022-08-21T03:54:30;16.27;;;13.13;;
6947;SDS011;3513;47.664;9.162;2022-08-21T03:56:56;19.63;;;12.90;;
6947;SDS011;3513;47.664;9.162;2022-08-21T03:59:21;18.40;;;13.23;;
6947;SDS011;3513;47.664;9.162;2022-08-21T04:01:55;22.13;;;13.00;;
6947;SDS011;3513;47.664;9.162;2022-08-21T04:04:22;18.07;;;13.30;;
6947;SDS011;3513;47.664;9.162;2022-08-21T04:06:48;20.77;;;14.20;;
6947;SDS011;3513;47.664;9.162;2022-08-21T04:09:15;20.93;;;13.33;;
6947;SDS011;3513;47.664;9.162;2022-08-21T04:11:42;19.80;;;13.60;;
6947;SDS011;3513;47.664;9.162;2022-08-21T04:14:08;19.27;;;13.87;;
6947;SDS011;3513;47.664;9.162;2022-08-21T04:16:34;19.37;;;13.93;;
6947;SDS011;3513;47.664;9.162;2022-08-21T04:19:00;16.73;;;12.80;;
6947;SDS011;3513;47.664;9.162;2022-08-21T04:21:26;16.37;;;11.30;;
6947;SDS011;3513;47.664;9.162;2022-08-21T04:23:53;14.07;;;11.80;;
6947;SDS011;3513;47.664;9.162;2022-08-21T04:26:20;15.60;;;11.00;;
6947;SDS011;3513;47.664;9.162;2022-08-21T04:28:45;16.87;;;10.83;;
6947;SDS011;3513;47.664;9.162;2022-08-21T04:31:11;14.30;;;10.47;;
6947;SDS011;3513;47.664;9.162;2022-08-21T04:33:37;12.47;;;10.10;;
6947;SDS011;3513;47.664;9.162;2022-08-21T04:36:03;12.30;;;9.33;;
6947;SDS011;3513;47.664;9.162;2022-08-21T04:38:29;15.70;;;10.00;;
6947;SDS011;3513;47.664;9.162;2022-08-21T04:40:56;11.80;;;9.80;;
6947;SDS011;3513;47.664;9.162;2022-08-21T04:43:22;15.50;;;10.10;;
6947;SDS011;3513;47.664;9.162;2022-08-21T04:45:48;14.47;;;10.03;;
6947;SDS011;3513;47.664;9.162;2022-08-21T04:48:16;15.77;;;11.67;;
6947;SDS011;3513;47.664;9.162;2022-08-21T04:53:20;11.53;;;9.30;;
6947;SDS011;3513;47.664;9.162;2022-08-21T04:56:01;11.20;;;9.63;;
6947;SDS011;3513;47.664;9.162;2022-08-21T04:58:33;10.13;;;8.70;;
6947;SDS011;3513;47.664;9.162;2022-08-21T05:01:01;13.20;;;10.57;;
6947;SDS011;3513;47.664;9.162;2022-08-21T05:03:27;13.60;;;9.63;;
6947;SDS011;3513;47.664;9.162;2022-08-21T05:05:56;13.23;;;9.37;;
6947;SDS011;3513;47.664;9.162;2022-08-21T05:08:23;11.70;;;9.90;;
6947;SDS011;3513;47.664;9.162;2022-08-21T05:10:50;14.00;;;8.53;;
6947;SDS011;3513;47.664;9.162;2022-08-21T05:13:16;10.07;;;8.90;;
6947;SDS011;3513;47.664;9.162;2022-08-21T05:15:43;10.13;;;9.03;;
6947;SDS011;3513;47.664;9.162;2022-08-21T05:18:08;11.10;;;9.00;;
6947;SDS011;3513;47.664;9.162;2022-08-21T05:20:34;13.90;;;9.50;;
6947;SDS011;3513;47.664;9.162;2022-08-21T05:23:00;25.53;;;9.27;;
6947;SDS011;3513;47.664;9.162;2022-08-21T05:25:26;9.27;;;8.33;;
6947;SDS011;3513;47.664;9.162;2022-08-21T05:27:52;12.00;;;10.30;;
6947;SDS011;3513;47.664;9.162;2022-08-21T05:30:19;12.30;;;8.57;;
6947;SDS011;3513;47.664;9.162;2022-08-21T05:32:45;10.03;;;8.97;;
6947;SDS011;3513;47.664;9.162;2022-08-21T05:35:12;9.50;;;8.20;;
6947;SDS011;3513;47.664;9.162;2022-08-21T05:37:38;9.50;;;8.40;;
6947;SDS011;3513;47.664;9.162;2022-08-21T05:40:04;8.90;;;8.00;;
6947;SDS011;3513;47.664;9.162;2022-08-21T05:42:32;12.33;;;8.00;;
6947;SDS011;3513;47.664;9.162;2022-08-21T05:44:57;10.10;;;8.40;;
6947;SDS011;3513;47.664;9.162;2022-08-21T05:47:23;8.13;;;7.30;;
6947;SDS011;3513;47.664;9.162;2022-08-21T05:49:49;9.83;;;8.00;;
6947;SDS011;3513;47.664;9.162;2022-08-21T05:52:18;10.77;;;8.67;;
6947;SDS011;3513;47.664;9.162;2022-08-21T05:54:44;9.63;;;8.63;;
6947;SDS011;3513;47.664;9.162;2022-08-21T05:57:10;9.73;;;8.30;;
6947;SDS011;3513;47.664;9.162;2022-08-21T05:59:35;14.13;;;9.37;;
6947;SDS011;3513;47.664;9.162;2022-08-21T06:02:02;12.40;;;8.77;;
6947;SDS011;3513;47.664;9.162;2022-08-21T06:04:28;12.20;;;10.07;;
6947;SDS011;3513;47.664;9.162;2022-08-21T06:06:54;13.73;;;11.03;;
6947;SDS011;3513;47.664;9.162;2022-08-21T06:09:20;12.17;;;9.97;;
6947;SDS011;3513;47.664;9.162;2022-08-21T06:11:46;10.90;;;8.97;;
6947;SDS011;3513;47.664;9.162;2022-08-21T06:14:15;12.27;;;9.57;;
6947;SDS011;3513;47.664;9.162;2022-08-21T06:16:41;13.90;;;7.80;;
6947;SDS011;3513;47.664;9.162;2022-08-21T06:19:07;9.20;;;7.00;;
6947;SDS011;3513;47.664;9.162;2022-08-21T06:21:32;7.73;;;6.70;;
6947;SDS011;3513;47.664;9.162;2022-08-21T06:23:58;9.70;;;7.13;;
6947;SDS011;3513;47.664;9.162;2022-08-21T06:26:24;7.37;;;6.50;;
6947;SDS011;3513;47.664;9.162;2022-08-21T06:28:50;6.17;;;5.53;;
6947;SDS011;3513;47.664;9.162;2022-08-21T06:31:23;7.60;;;6.10;;
6947;SDS011;3513;47.664;9.162;2022-08-21T06:33:50;14.73;;;6.83;;
6947;SDS011;3513;47.664;9.162;2022-08-21T06:36:17;7.17;;;5.23;;
6947;SDS011;3513;47.664;9.162;2022-08-21T06:38:44;7.03;;;5.30;;
6947;SDS011;3513;47.664;9.162;2022-08-21T06:41:10;7.13;;;4.80;;
6947;SDS011;3513;47.664;9.162;2022-08-21T06:43:36;6.27;;;4.67;;
6947;SDS011;3513;47.664;9.162;2022-08-21T06:46:02;7.40;;;5.33;;
6947;SDS011;3513;47.664;9.162;2022-08-21T06:48:28;6.20;;;4.73;;
6947;SDS011;3513;47.664;9.162;2022-08-21T06:50:56;5.13;;;4.70;;
6947;SDS011;3513;47.664;9.162;2022-08-21T06:53:24;6.33;;;5.23;;
6947;SDS011;3513;47.664;9.162;2022-08-21T06:55:49;5.77;;;5.23;;
6947;SDS011;3513;47.664;9.162;2022-08-21T06:58:15;7.53;;;4.63;;
6947;SDS011;3513;47.664;9.162;2022-08-21T07:00:43;5.60;;;5.10;;
6947;SDS011;3513;47.664;9.162;2022-08-21T07:03:20;4.27;;;3.87;;
6947;SDS011;3513;47.664;9.162;2022-08-21T07:05:52;7.67;;;5.13;;
6947;SDS011;3513;47.664;9.162;2022-08-21T07:08:18;6.77;;;4.63;;
6947;SDS011;3513;47.664;9.162;2022-08-21T07:10:44;10.33;;;4.63;;
6947;SDS011;3513;47.664;9.162;2022-08-21T07:13:11;11.13;;;4.57;;
6947;SDS011;3513;47.664;9.162;2022-08-21T07:15:37;7.83;;;4.93;;
6947;SDS011;3513;47.664;9.162;2022-08-21T07:18:02;11.50;;;4.50;;
6947;SDS011;3513;47.664;9.162;2022-08-21T07:20:29;6.33;;;5.17;;
6947;SDS011;3513;47.664;9.162;2022-08-21T07:22:56;10.43;;;5.17;;
6947;SDS011;3513;47.664;9.162;2022-08-21T07:25:24;3.90;;;3.50;;
6947;SDS011;3513;47.664;9.162;2022-08-21T07:27:50;8.20;;;4.47;;
6947;SDS011;3513;47.664;9.162;2022-08-21T07:30:16;8.70;;;5.27;;
6947;SDS011;3513;47.664;9.162;2022-08-21T07:32:41;6.60;;;4.27;;
6947;SDS011;3513;47.664;9.162;2022-08-21T07:35:07;7.57;;;4.63;;
6947;SDS011;3513;47.664;9.162;2022-08-21T07:37:33;5.10;;;3.60;;
6947;SDS011;3513;47.664;9.162;2022-08-21T07:39:59;6.30;;;4.40;;
6947;SDS011;3513;47.664;9.162;2022-08-21T07:42:25;7.33;;;4.60;;
6947;SDS011;3513;47.664;9.162;2022-08-21T07:44:50;7.30;;;3.73;;
6947;SDS011;3513;47.664;9.162;2022-08-21T07:47:16;7.60;;;3.73;;
6947;SDS011;3513;47.664;9.162;2022-08-21T07:49:42;3.83;;;3.53;;
6947;SDS011;3513;47.664;9.162;2022-08-21T07:52:07;6.00;;;4.10;;
6947;SDS011;3513;47.664;9.162;2022-08-21T07:54:33;10.27;;;4.17;;
6947;SDS011;3513;47.664;9.162;2022-08-21T07:56:58;4.93;;;3.93;;
6947;SDS011;3513;47.664;9.162;2022-08-21T07:59:24;4.40;;;3.90;;
6947;SDS011;3513;47.664;9.162;2022-08-21T08:01:50;9.60;;;3.70;;
6947;SDS011;3513;47.664;9.162;2022-08-21T08:04:15;10.57;;;3.80;;
6947;SDS011;3513;47.664;9.162;2022-08-21T08:06:41;7.90;;;3.80;;
6947;SDS011;3513;47.664;9.162;2022-08-21T08:09:07;3.60;;;3.23;;
6947;SDS011;3513;47.664;9.162;2022-08-21T08:11:32;4.40;;;3.97;;
6947;SDS011;3513;47.664;9.162;2022-08-21T08:13:58;5.40;;;3.07;;
6947;SDS011;3513;47.664;9.162;2022-08-21T08:16:24;5.67;;;3.83;;
6947;SDS011;3513;47.664;9.162;2022-08-21T08:18:51;7.17;;;4.17;;
6947;SDS011;3513;47.664;9.162;2022-08-21T08:21:17;4.20;;;3.37;;
6947;SDS011;3513;47.664;9.162;2022-08-21T08:23:45;6.97;;;3.80;;
6947;SDS011;3513;47.664;9.162;2022-08-21T08:26:11;6.33;;;3.07;;
6947;SDS011;3513;47.664;9.162;2022-08-21T08:28:37;6.30;;;3.73;;
6947;SDS011;3513;47.664;9.162;2022-08-21T08:31:03;4.00;;;3.53;;
6947;SDS011;3513;47.664;9.162;2022-08-21T08:33:28;3.93;;;3.60;;
6947;SDS011;3513;47.664;9.162;2022-08-21T08:35:54;5.23;;;3.90;;
6947;SDS011;3513;47.664;9.162;2022-08-21T08:38:20;5.27;;;4.40;;
6947;SDS011;3513;47.664;9.162;2022-08-21T08:43:32;4.27;;;3.83;;
6947;SDS011;3513;47.664;9.162;2022-08-21T08:46:01;8.97;;;4.63;;
6947;SDS011;3513;47.664;9.162;2022-08-21T08:48:43;6.07;;;3.67;;
6947;SDS011;3513;47.664;9.162;2022-08-21T08:51:18;9.17;;;4.43;;
6947;SDS011;3513;47.664;9.162;2022-08-21T08:54:03;5.13;;;3.73;;
6947;SDS011;3513;47.664;9.162;2022-08-21T08:56:35;10.17;;;4.27;;
6947;SDS011;3513;47.664;9.162;2022-08-21T08:59:15;7.47;;;3.60;;
6947;SDS011;3513;47.664;9.162;2022-08-21T09:01:44;6.87;;;4.57;;
6947;SDS011;3513;47.664;9.162;2022-08-21T09:04:10;8.20;;;3.80;;
6947;SDS011;3513;47.664;9.162;2022-08-21T09:14:50;6.93;;;4.00;;
6947;SDS011;3513;47.664;9.162;2022-08-21T09:20:12;6.37;;;4.20;;
6947;SDS011;3513;47.664;9.162;2022-08-21T09:28:18;10.73;;;3.87;;
6947;SDS011;3513;47.664;9.162;2022-08-21T09:30:44;5.50;;;3.87;;
6947;SDS011;3513;47.664;9.162;2022-08-21T09:33:09;9.10;;;3.60;;
6947;SDS011;3513;47.664;9.162;2022-08-21T09:35:47;4.67;;;4.10;;
6947;SDS011;3513;47.664;9.162;2022-08-21T09:38:32;8.10;;;3.90;;
6947;SDS011;3513;47.664;9.162;2022-08-21T09:41:04;12.20;;;3.53;;
6947;SDS011;3513;47.664;9.162;2022-08-21T09:43:32;5.07;;;3.53;;
6947;SDS011;3513;47.664;9.162;2022-08-21T09:48:45;5.50;;;3.30;;
6947;SDS011;3513;47.664;9.162;2022-08-21T09:51:20;16.43;;;3.43;;
6947;SDS011;3513;47.664;9.162;2022-08-21T09:53:51;9.33;;;4.40;;
6947;SDS011;3513;47.664;9.162;2022-08-21T09:56:25;5.13;;;2.90;;
6947;SDS011;3513;47.664;9.162;2022-08-21T09:59:13;5.37;;;3.00;;
6947;SDS011;3513;47.664;9.162;2022-08-21T10:01:46;9.57;;;3.33;;
6947;SDS011;3513;47.664;9.162;2022-08-21T10:04:14;5.43;;;2.70;;
6947;SDS011;3513;47.664;9.162;2022-08-21T10:06:44;12.80;;;3.00;;
6947;SDS011;3513;47.664;9.162;2022-08-21T10:09:11;6.60;;;2.87;;
6947;SDS011;3513;47.664;9.162;2022-08-21T10:11:49;7.37;;;3.20;;
6947;SDS011;3513;47.664;9.162;2022-08-21T10:17:22;4.27;;;2.83;;
6947;SDS011;3513;47.664;9.162;2022-08-21T10:20:14;6.47;;;2.50;;
6947;SDS011;3513;47.664;9.162;2022-08-21T10:22:52;12.23;;;2.90;;
6947;SDS011;3513;47.664;9.162;2022-08-21T10:37:07;3.83;;;2.07;;
6947;SDS011;3513;47.664;9.162;2022-08-21T10:39:37;7.00;;;2.90;;
6947;SDS011;3513;47.664;9.162;2022-08-21T10:47:53;9.33;;;2.73;;
6947;SDS011;3513;47.664;9.162;2022-08-21T10:50:39;7.60;;;2.40;;
6947;SDS011;3513;47.664;9.162;2022-08-21T10:55:59;7.97;;;3.07;;
6947;SDS011;3513;47.664;9.162;2022-08-21T10:58:34;5.07;;;3.10;;
6947;SDS011;3513;47.664;9.162;2022-08-21T11:01:13;5.10;;;2.30;;
6947;SDS011;3513;47.664;9.162;2022-08-21T11:03:51;5.70;;;2.30;;
6947;SDS011;3513;47.664;9.162;2022-08-21T11:06:27;4.70;;;2.30;;
6947;SDS011;3513;47.664;9.162;2022-08-21T11:09:11;2.77;;;2.20;;
6947;SDS011;3513;47.664;9.162;2022-08-21T11:11:47;6.93;;;2.30;;
6947;SDS011;3513;47.664;9.162;2022-08-21T11:14:29;9.23;;;2.30;;
6947;SDS011;3513;47.664;9.162;2022-08-21T11:17:05;8.13;;;2.97;;
6947;SDS011;3513;47.664;9.162;2022-08-21T11:19:37;6.53;;;2.20;;
6947;SDS011;3513;47.664;9.162;2022-08-21T11:22:37;8.50;;;2.77;;
6947;SDS011;3513;47.664;9.162;2022-08-21T11:25:11;2.60;;;2.23;;
6947;SDS011;3513;47.664;9.162;2022-08-21T11:27:56;6.37;;;2.43;;
6947;SDS011;3513;47.664;9.162;2022-08-21T11:33:27;5.70;;;2.50;;
6947;SDS011;3513;47.664;9.162;2022-08-21T11:35:58;6.43;;;2.20;;
6947;SDS011;3513;47.664;9.162;2022-08-21T11:38:42;4.83;;;2.03;;
6947;SDS011;3513;47.664;9.162;2022-08-21T11:44:02;5.60;;;1.93;;
6947;SDS011;3513;47.664;9.162;2022-08-21T11:49:32;4.30;;;2.10;;
6947;SDS011;3513;47.664;9.162;2022-08-21T11:52:44;3.53;;;2.20;;
6947;SDS011;3513;47.664;9.162;2022-08-21T11:55:16;6.07;;;2.60;;
6947;SDS011;3513;47.664;9.162;2022-08-21T12:00:24;3.60;;;2.40;;
6947;SDS011;3513;47.664;9.162;2022-08-21T12:02:59;5.60;;;1.97;;
6947;SDS011;3513;47.664;9.162;2022-08-21T12:05:36;6.33;;;2.30;;
6947;SDS011;3513;47.664;9.162;2022-08-21T12:10:38;6.33;;;2.37;;
6947;SDS011;3513;47.664;9.162;2022-08-21T12:13:07;9.17;;;2.00;;
6947;SDS011;3513;47.664;9.162;2022-08-21T12:15:36;4.60;;;1.93;;
6947;SDS011;3513;47.664;9.162;2022-08-21T12:18:03;2.80;;;2.00;;
6947;SDS011;3513;47.664;9.162;2022-08-21T12:23:34;5.07;;;1.97;;
6947;SDS011;3513;47.664;9.162;2022-08-21T12:26:30;6.80;;;2.00;;
6947;SDS011;3513;47.664;9.162;2022-08-21T12:29:32;5.23;;;1.37;;
6947;SDS011;3513;47.664;9.162;2022-08-21T12:32:25;4.37;;;1.57;;
6947;SDS011;3513;47.664;9.162;2022-08-21T12:35:25;5.33;;;1.80;;
6947;SDS011;3513;47.664;9.162;2022-08-21T12:38:17;2.00;;;1.20;;
6947;SDS011;3513;47.664;9.162;2022-08-21T12:43:18;1.63;;;1.00;;
6947;SDS011;3513;47.664;9.162;2022-08-21T12:45:50;1.47;;;1.10;;
6947;SDS011;3513;47.664;9.162;2022-08-21T12:51:11;1.77;;;1.10;;
6947;SDS011;3513;47.664;9.162;2022-08-21T12:56:17;2.93;;;1.30;;
6947;SDS011;3513;47.664;9.162;2022-08-21T12:58:54;3.80;;;1.60;;
6947;SDS011;3513;47.664;9.162;2022-08-21T13:04:02;1.90;;;1.07;;
6947;SDS011;3513;47.664;9.162;2022-08-21T13:06:41;1.70;;;1.47;;
6947;SDS011;3513;47.664;9.162;2022-08-21T13:09:10;1.93;;;1.30;;
6947;SDS011;3513;47.664;9.162;2022-08-21T13:11:41;4.53;;;1.67;;
6947;SDS011;3513;47.664;9.162;2022-08-21T13:16:57;1.90;;;1.37;;
6947;SDS011;3513;47.664;9.162;2022-08-21T13:19:25;4.73;;;1.20;;
6947;SDS011;3513;47.664;9.162;2022-08-21T13:21:51;1.70;;;1.43;;
6947;SDS011;3513;47.664;9.162;2022-08-21T13:24:34;3.03;;;1.50;;
6947;SDS011;3513;47.664;9.162;2022-08-21T13:27:02;2.03;;;1.60;;
6947;SDS011;3513;47.664;9.162;2022-08-21T13:29:29;4.30;;;1.70;;
6947;SDS011;3513;47.664;9.162;2022-08-21T13:31:59;2.13;;;1.50;;
6947;SDS011;3513;47.664;9.162;2022-08-21T13:34:30;2.40;;;1.10;;
6947;SDS011;3513;47.664;9.162;2022-08-21T13:36:59;3.90;;;1.50;;
6947;SDS011;3513;47.664;9.162;2022-08-21T13:39:28;2.67;;;1.73;;
6947;SDS011;3513;47.664;9.162;2022-08-21T13:41:55;1.80;;;1.33;;
6947;SDS011;3513;47.664;9.162;2022-08-21T13:46:57;5.53;;;1.50;;
6947;SDS011;3513;47.664;9.162;2022-08-21T13:49:29;2.60;;;1.40;;
6947;SDS011;3513;47.664;9.162;2022-08-21T13:51:57;2.40;;;1.70;;
6947;SDS011;3513;47.664;9.162;2022-08-21T13:54:27;4.83;;;1.80;;
6947;SDS011;3513;47.664;9.162;2022-08-21T13:56:59;4.37;;;2.13;;
6947;SDS011;3513;47.664;9.162;2022-08-21T13:59:32;6.60;;;1.70;;
6947;SDS011;3513;47.664;9.162;2022-08-21T14:02:16;2.23;;;1.33;;
6947;SDS011;3513;47.664;9.162;2022-08-21T14:04:44;4.93;;;1.50;;
6947;SDS011;3513;47.664;9.162;2022-08-21T14:07:26;2.40;;;1.50;;
6947;SDS011;3513;47.664;9.162;2022-08-21T14:09:59;4.00;;;1.70;;
6947;SDS011;3513;47.664;9.162;2022-08-21T14:12:38;3.83;;;1.17;;
6947;SDS011;3513;47.664;9.162;2022-08-21T14:15:08;2.50;;;1.43;;
6947;SDS011;3513;47.664;9.162;2022-08-21T14:17:38;1.83;;;1.27;;
6947;SDS011;3513;47.664;9.162;2022-08-21T14:20:07;1.40;;;1.30;;
6947;SDS011;3513;47.664;9.162;2022-08-21T14:22:53;2.57;;;1.47;;
6947;SDS011;3513;47.664;9.162;2022-08-21T14:27:48;5.87;;;1.80;;
6947;SDS011;3513;47.664;9.162;2022-08-21T14:30:18;1.40;;;1.17;;
6947;SDS011;3513;47.664;9.162;2022-08-21T14:32:46;1.93;;;1.30;;
6947;SDS011;3513;47.664;9.162;2022-08-21T14:35:13;5.00;;;1.63;;
6947;SDS011;3513;47.664;9.162;2022-08-21T14:37:43;2.63;;;1.33;;
6947;SDS011;3513;47.664;9.162;2022-08-21T14:40:09;2.87;;;1.10;;
6947;SDS011;3513;47.664;9.162;2022-08-21T14:42:36;2.90;;;1.87;;
6947;SDS011;3513;47.664;9.162;2022-08-21T14:45:05;1.10;;;1.00;;
6947;SDS011;3513;47.664;9.162;2022-08-21T14:47:44;2.40;;;1.10;;
6947;SDS011;3513;47.664;9.162;2022-08-21T14:50:10;2.33;;;1.60;;
6947;SDS011;3513;47.664;9.162;2022-08-21T14:52:37;1.80;;;0.93;;
6947;SDS011;3513;47.664;9.162;2022-08-21T14:55:04;2.23;;;1.33;;
6947;SDS011;3513;47.664;9.162;2022-08-21T14:57:31;1.73;;;1.20;;
6947;SDS011;3513;47.664;9.162;2022-08-21T14:59:59;1.60;;;1.07;;
6947;SDS011;3513;47.664;9.162;2022-08-21T15:02:25;1.07;;;0.97;;
6947;SDS011;3513;47.664;9.162;2022-08-21T15:04:51;1.20;;;0.97;;
6947;SDS011;3513;47.664;9.162;2022-08-21T15:07:17;5.27;;;1.00;;
6947;SDS011;3513;47.664;9.162;2022-08-21T15:09:42;0.80;;;0.80;;
6947;SDS011;3513;47.664;9.162;2022-08-21T15:12:08;1.20;;;1.00;;
6947;SDS011;3513;47.664;9.162;2022-08-21T15:14:36;1.77;;;0.90;;
6947;SDS011;3513;47.664;9.162;2022-08-21T15:17:05;3.57;;;1.17;;
6947;SDS011;3513;47.664;9.162;2022-08-21T15:19:32;1.50;;;1.17;;
6947;SDS011;3513;47.664;9.162;2022-08-21T15:21:58;1.20;;;1.10;;
6947;SDS011;3513;47.664;9.162;2022-08-21T15:24:24;2.03;;;1.30;;
6947;SDS011;3513;47.664;9.162;2022-08-21T15:26:50;3.83;;;1.60;;
6947;SDS011;3513;47.664;9.162;2022-08-21T15:29:17;1.67;;;1.20;;
6947;SDS011;3513;47.664;9.162;2022-08-21T15:31:53;2.47;;;1.40;;
6947;SDS011;3513;47.664;9.162;2022-08-21T15:34:22;3.50;;;1.30;;
6947;SDS011;3513;47.664;9.162;2022-08-21T15:36:48;1.47;;;1.00;;
6947;SDS011;3513;47.664;9.162;2022-08-21T15:39:14;1.80;;;1.33;;
6947;SDS011;3513;47.664;9.162;2022-08-21T15:41:40;1.40;;;1.30;;
6947;SDS011;3513;47.664;9.162;2022-08-21T15:44:06;2.50;;;1.03;;
6947;SDS011;3513;47.664;9.162;2022-08-21T15:46:35;5.43;;;1.43;;
6947;SDS011;3513;47.664;9.162;2022-08-21T15:49:02;1.53;;;1.00;;
6947;SDS011;3513;47.664;9.162;2022-08-21T15:51:27;1.40;;;1.23;;
6947;SDS011;3513;47.664;9.162;2022-08-21T15:53:53;1.80;;;1.20;;
6947;SDS011;3513;47.664;9.162;2022-08-21T15:56:23;3.43;;;1.27;;
6947;SDS011;3513;47.664;9.162;2022-08-21T15:58:51;1.97;;;1.07;;
6947;SDS011;3513;47.664;9.162;2022-08-21T16:01:22;1.20;;;1.10;;
6947;SDS011;3513;47.664;9.162;2022-08-21T16:03:48;2.03;;;1.50;;
6947;SDS011;3513;47.664;9.162;2022-08-21T16:06:17;2.83;;;1.10;;
6947;SDS011;3513;47.664;9.162;2022-08-21T16:08:43;1.00;;;1.00;;
6947;SDS011;3513;47.664;9.162;2022-08-21T16:11:10;2.50;;;1.00;;
6947;SDS011;3513;47.664;9.162;2022-08-21T16:13:40;1.97;;;1.20;;
6947;SDS011;3513;47.664;9.162;2022-08-21T16:16:09;1.23;;;1.13;;
6947;SDS011;3513;47.664;9.162;2022-08-21T16:18:37;1.20;;;1.10;;
6947;SDS011;3513;47.664;9.162;2022-08-21T16:21:03;1.40;;;1.23;;
6947;SDS011;3513;47.664;9.162;2022-08-21T16:23:29;4.10;;;1.33;;
6947;SDS011;3513;47.664;9.162;2022-08-21T16:25:57;2.43;;;1.27;;
6947;SDS011;3513;47.664;9.162;2022-08-21T16:28:24;2.27;;;1.20;;
6947;SDS011;3513;47.664;9.162;2022-08-21T16:30:50;1.50;;;1.17;;
6947;SDS011;3513;47.664;9.162;2022-08-21T16:33:29;1.37;;;1.27;;
6947;SDS011;3513;47.664;9.162;2022-08-21T16:35:58;1.73;;;1.53;;
6947;SDS011;3513;47.664;9.162;2022-08-21T16:38:28;1.40;;;1.30;;
6947;SDS011;3513;47.664;9.162;2022-08-21T16:40:53;2.70;;;1.20;;
6947;SDS011;3513;47.664;9.162;2022-08-21T16:43:21;3.57;;;1.20;;
6947;SDS011;3513;47.664;9.162;2022-08-21T16:45:51;2.00;;;1.03;;